Time;durP1;ratioP1;P1;durP2;ratioP2;P2;SDS_P1;SDS_P2;PMS_P1;PMS_P2;Temp;Humidity;BMP_temperature;BMP_pressure;BME280_temperature;BME280_humidity;BME280_pressure;Samples;Min_cycle;Max_cycle;Signal;HPM_P1;HPM_P2
2022/07/17 00:00:48;;;;;;;2.92;1.80;;;16.20;93.30;;;;;;2084315;28;20029;-67
2022/07/17 00:01:49;;;;;;;3.03;1.70;;;16.20;94.00;;;;;;2084014;28;20473;-67
2022/07/17 00:02:50;;;;;;;4.25;1.77;;;16.20;92.80;;;;;;2084431;28;20025;-67
2022/07/17 00:03:51;;;;;;;7.25;1.90;;;16.20;93.50;;;;;;2085056;28;20029;-67
2022/07/17 00:04:51;;;;;;;7.40;2.00;;;16.20;94.00;;;;;;2085245;28;20119;-67
2022/07/17 00:05:52;;;;;;;4.47;1.73;;;16.20;94.10;;;;;;2083516;28;20481;-67
2022/07/17 00:06:52;;;;;;;2.88;1.80;;;16.10;94.00;;;;;;2083717;28;20370;-67
2022/07/17 00:07:53;;;;;;;2.20;1.20;;;16.10;94.30;;;;;;2085857;28;20123;-67
2022/07/17 00:08:54;;;;;;;2.88;1.58;;;16.10;93.40;;;;;;2086331;28;20036;-67
2022/07/17 00:09:54;;;;;;;3.78;1.85;;;16.10;94.30;;;;;;2084661;28;20388;-67
2022/07/17 00:10:55;;;;;;;2.58;1.73;;;16.00;94.70;;;;;;2086434;28;20524;-67
2022/07/17 00:11:55;;;;;;;3.65;1.90;;;16.00;94.80;;;;;;2083650;28;20026;-67
2022/07/17 00:12:56;;;;;;;4.20;1.90;;;16.00;94.90;;;;;;2088058;28;20036;-67
2022/07/17 00:13:57;;;;;;;4.63;2.00;;;16.00;95.00;;;;;;2083664;28;20783;-67
2022/07/17 00:14:57;;;;;;;2.65;1.58;;;16.00;95.20;;;;;;2085196;28;20072;-67
2022/07/17 00:15:58;;;;;;;2.20;1.40;;;16.00;95.10;;;;;;2084452;28;20032;-67
2022/07/17 00:16:59;;;;;;;10.23;2.10;;;16.00;95.00;;;;;;2088505;28;20103;-67
2022/07/17 00:17:59;;;;;;;1.95;1.40;;;15.90;95.50;;;;;;2085957;28;20064;-67
2022/07/17 00:19:00;;;;;;;4.43;1.83;;;16.00;95.20;;;;;;2085068;28;20048;-67
2022/07/17 00:20:01;;;;;;;4.13;1.65;;;15.90;95.40;;;;;;2086531;28;20029;-67
2022/07/17 00:21:01;;;;;;;1.73;1.55;;;15.90;95.60;;;;;;2086485;28;20039;-67
2022/07/17 00:22:02;;;;;;;3.25;1.60;;;15.90;95.50;;;;;;2085974;28;20482;-67
2022/07/17 00:23:02;;;;;;;4.75;1.70;;;15.90;95.90;;;;;;2085268;28;20481;-67
2022/07/17 00:24:06;;;;;;;4.32;1.60;;;15.80;95.90;;;;;;2084185;28;20021;-67
2022/07/17 00:25:06;;;;;;;4.57;1.40;;;15.80;96.20;;;;;;2089154;28;20016;-67
2022/07/17 00:26:07;;;;;;;3.80;1.98;;;15.80;96.60;;;;;;2085344;28;20530;-67
2022/07/17 00:27:08;;;;;;;2.92;1.45;;;15.80;96.70;;;;;;2086242;28;20025;-67
2022/07/17 00:28:09;;;;;;;3.13;1.70;;;15.80;96.30;;;;;;2084170;28;20037;-67
2022/07/17 00:29:09;;;;;;;2.40;1.50;;;15.80;96.50;;;;;;2087441;28;20025;-67
2022/07/17 00:30:10;;;;;;;6.03;1.70;;;15.80;96.70;;;;;;2085096;28;20060;-67
2022/07/17 00:31:11;;;;;;;2.38;1.30;;;15.70;96.60;;;;;;2082533;28;20037;-67
2022/07/17 00:32:11;;;;;;;3.53;2.05;;;15.70;97.20;;;;;;2082390;28;20489;-67
2022/07/17 00:33:12;;;;;;;5.60;1.55;;;15.70;97.20;;;;;;2084666;28;20052;-67
2022/07/17 00:34:13;;;;;;;3.38;1.48;;;15.70;97.60;;;;;;2086871;28;20040;-67
2022/07/17 00:35:13;;;;;;;2.45;1.48;;;15.70;97.20;;;;;;2082934;28;20039;-67
2022/07/17 00:36:14;;;;;;;3.15;1.70;;;15.70;97.20;;;;;;2085564;28;20386;-67
2022/07/17 00:37:15;;;;;;;2.10;1.48;;;15.70;97.70;;;;;;2085145;28;20029;-67
2022/07/17 00:38:15;;;;;;;2.88;1.40;;;15.60;97.60;;;;;;2086378;28;20037;-67
2022/07/17 00:39:16;;;;;;;4.85;1.60;;;15.60;98.10;;;;;;2084173;28;20021;-67
2022/07/17 00:40:19;;;;;;;3.05;1.38;;;15.60;97.80;;;;;;2086301;28;20523;-67
2022/07/17 00:41:20;;;;;;;2.80;1.38;;;15.60;98.20;;;;;;2087153;28;20032;-67
2022/07/17 00:42:21;;;;;;;4.15;1.70;;;15.60;98.00;;;;;;2082642;28;20104;-67
2022/07/17 00:43:22;;;;;;;4.18;1.50;;;15.60;98.00;;;;;;2086709;28;20032;-67
2022/07/17 00:44:26;;;;;;;3.28;1.60;;;15.60;97.50;;;;;;2084600;28;20034;-67
2022/07/17 00:45:27;;;;;;;2.78;1.42;;;15.60;98.70;;;;;;2083035;28;20038;-67
2022/07/17 00:46:28;;;;;;;4.18;1.92;;;15.50;98.40;;;;;;2082326;28;20029;-67
2022/07/17 00:47:29;;;;;;;3.55;1.40;;;15.50;98.70;;;;;;2084083;28;20032;-67
2022/07/17 00:48:31;;;;;;;7.45;2.03;;;15.50;98.70;;;;;;2083131;28;20501;-67
2022/07/17 00:49:31;;;;;;;2.85;1.77;;;15.50;97.60;;;;;;2085081;28;20036;-67
2022/07/17 00:50:43;;;;;;;3.72;1.52;;;15.50;98.60;;;;;;2086672;28;20024;-67
2022/07/17 00:51:43;;;;;;;2.50;1.67;;;15.50;98.40;;;;;;2085008;28;20033;-67
2022/07/17 00:52:44;;;;;;;4.80;1.75;;;15.50;98.60;;;;;;2083675;28;20036;-67
2022/07/17 00:53:46;;;;;;;2.20;1.60;;;15.40;99.40;;;;;;2082894;28;20025;-67
2022/07/17 00:54:47;;;;;;;4.57;1.70;;;15.40;98.50;;;;;;2082930;28;20027;-67
2022/07/17 00:55:48;;;;;;;2.92;1.38;;;15.40;99.50;;;;;;2085189;28;20626;-67
2022/07/17 00:56:50;;;;;;;3.28;1.58;;;15.40;98.40;;;;;;2084944;28;20431;-67
2022/07/17 00:57:54;;;;;;;3.10;1.50;;;15.40;99.40;;;;;;2083409;28;20044;-68
2022/07/17 00:58:55;;;;;;;3.25;1.45;;;15.40;99.90;;;;;;2085231;28;20060;-68
2022/07/17 00:59:56;;;;;;;4.13;2.13;;;15.40;99.90;;;;;;2086096;28;20526;-68
2022/07/17 01:00:56;;;;;;;4.43;1.70;;;15.40;99.90;;;;;;2085221;28;20396;-68
2022/07/17 01:01:57;;;;;;;3.25;1.52;;;15.30;99.90;;;;;;2085712;28;20134;-68
2022/07/17 01:02:58;;;;;;;3.33;1.58;;;15.30;99.90;;;;;;2081005;28;20119;-68
2022/07/17 01:03:59;;;;;;;3.53;1.73;;;15.30;99.90;;;;;;2082539;28;20014;-68
2022/07/17 01:04:59;;;;;;;1.80;1.33;;;15.30;99.90;;;;;;2085387;28;20067;-68
2022/07/17 01:06:00;;;;;;;3.58;1.42;;;15.30;99.60;;;;;;2083365;28;20060;-68
2022/07/17 01:07:03;;;;;;;3.78;1.60;;;15.30;99.90;;;;;;2086033;28;20014;-68
2022/07/17 01:08:04;;;;;;;4.93;1.42;;;15.30;99.90;;;;;;2084846;28;20147;-68
2022/07/17 01:09:04;;;;;;;4.68;1.60;;;15.30;99.90;;;;;;2083076;28;20064;-68
2022/07/17 01:10:05;;;;;;;5.07;1.88;;;15.30;99.90;;;;;;2085482;28;20400;-68
2022/07/17 01:11:09;;;;;;;3.63;1.85;;;15.30;99.90;;;;;;2080839;28;20079;-68
2022/07/17 01:12:10;;;;;;;5.25;1.70;;;15.30;99.90;;;;;;2082962;28;20025;-68
2022/07/17 01:13:11;;;;;;;4.38;1.80;;;15.30;99.90;;;;;;2085140;28;20566;-68
2022/07/17 01:14:11;;;;;;;3.85;1.67;;;15.30;99.90;;;;;;2084942;28;20580;-68
2022/07/17 01:15:13;;;;;;;3.00;1.60;;;15.20;99.90;;;;;;2085948;28;20024;-68
2022/07/17 01:16:14;;;;;;;4.05;1.60;;;15.30;99.90;;;;;;2085897;28;20445;-68
2022/07/17 01:17:15;;;;;;;5.05;1.45;;;15.20;99.90;;;;;;2086260;28;20056;-68
2022/07/17 01:18:16;;;;;;;8.88;1.98;;;15.20;99.90;;;;;;2083509;28;20083;-68
2022/07/17 01:19:17;;;;;;;5.28;1.92;;;15.20;99.90;;;;;;2083953;28;20018;-68
2022/07/17 01:20:18;;;;;;;2.28;1.20;;;15.20;99.90;;;;;;2085007;28;20028;-68
2022/07/17 01:21:18;;;;;;;3.75;1.40;;;15.20;99.90;;;;;;2085541;28;20020;-68
2022/07/17 01:22:19;;;;;;;3.35;1.25;;;15.20;99.90;;;;;;2085444;28;20033;-68
2022/07/17 01:23:20;;;;;;;5.10;1.70;;;15.20;99.90;;;;;;2085889;28;20036;-68
2022/07/17 01:24:21;;;;;;;3.20;1.45;;;15.10;99.90;;;;;;2088020;28;20472;-68
2022/07/17 01:25:23;;;;;;;4.70;1.45;;;15.10;99.90;;;;;;2083653;28;20077;-68
2022/07/17 01:26:23;;;;;;;2.58;1.50;;;15.10;99.90;;;;;;2085993;28;20094;-68
2022/07/17 01:27:24;;;;;;;4.80;1.70;;;15.10;99.90;;;;;;2085152;28;20112;-68
2022/07/17 01:28:25;;;;;;;5.50;1.50;;;15.10;99.90;;;;;;2087461;28;20037;-68
2022/07/17 01:29:25;;;;;;;7.13;1.67;;;15.10;99.90;;;;;;2085129;28;20013;-68
2022/07/17 01:30:27;;;;;;;5.82;2.00;;;15.10;99.90;;;;;;2086733;28;20049;-68
2022/07/17 01:31:28;;;;;;;5.55;1.83;;;15.10;99.90;;;;;;2086805;28;20021;-67
2022/07/17 01:32:36;;;;;;;5.10;2.28;;;15.10;99.90;;;;;;2078568;28;20053;-68
2022/07/17 01:33:37;;;;;;;4.55;1.70;;;15.00;99.90;;;;;;2080836;28;20377;-68
2022/07/17 01:34:37;;;;;;;3.95;1.52;;;15.00;99.90;;;;;;2085454;28;20036;-67
2022/07/17 01:35:38;;;;;;;3.83;1.65;;;15.00;99.90;;;;;;2082890;28;20028;-67
2022/07/17 01:36:39;;;;;;;4.03;1.52;;;15.00;99.90;;;;;;2085251;28;20033;-67
2022/07/17 01:37:41;;;;;;;3.33;1.27;;;15.00;99.90;;;;;;2083315;28;20030;-67
2022/07/17 01:38:41;;;;;;;3.25;1.55;;;15.00;99.90;;;;;;2085194;28;20040;-67
2022/07/17 01:39:54;;;;;;;2.30;1.45;;;15.00;99.90;;;;;;2085723;28;20044;-67
2022/07/17 01:40:55;;;;;;;3.83;1.60;;;15.00;99.90;;;;;;2084894;28;20490;-67
2022/07/17 01:41:56;;;;;;;4.18;1.88;;;15.00;99.90;;;;;;2083764;28;20021;-67
2022/07/17 01:42:56;;;;;;;3.88;1.75;;;15.00;99.90;;;;;;2084799;28;20028;-67
2022/07/17 01:43:57;;;;;;;2.95;1.42;;;14.90;99.90;;;;;;2087893;28;20028;-67
2022/07/17 01:44:58;;;;;;;3.72;1.80;;;14.90;99.90;;;;;;2088012;28;20529;-67
2022/07/17 01:45:59;;;;;;;6.32;1.88;;;14.90;99.90;;;;;;2087094;28;20021;-67
2022/07/17 01:46:59;;;;;;;3.17;1.58;;;14.90;99.90;;;;;;2086039;28;20033;-67
2022/07/17 01:48:00;;;;;;;2.85;1.60;;;14.90;99.90;;;;;;2087043;28;20012;-67
2022/07/17 01:49:01;;;;;;;3.83;1.50;;;14.90;99.90;;;;;;2085623;28;20013;-67
2022/07/17 01:50:03;;;;;;;6.60;2.08;;;14.90;99.90;;;;;;2081295;28;20033;-67
2022/07/17 01:51:03;;;;;;;3.35;1.40;;;14.90;99.90;;;;;;2083071;28;20096;-67
2022/07/17 01:52:04;;;;;;;1.48;1.10;;;14.90;99.90;;;;;;2083067;28;20028;-67
2022/07/17 01:53:05;;;;;;;3.35;1.60;;;14.90;99.90;;;;;;2085848;28;20103;-67
2022/07/17 01:54:05;;;;;;;4.90;1.80;;;14.90;99.90;;;;;;2084609;28;20404;-68
2022/07/17 01:55:08;;;;;;;3.00;1.25;;;14.90;99.90;;;;;;2083806;28;20477;-67
2022/07/17 01:56:09;;;;;;;6.30;1.70;;;14.80;99.90;;;;;;2083409;28;20499;-67
2022/07/17 01:57:11;;;;;;;6.43;1.90;;;14.80;99.90;;;;;;2085670;28;20391;-67
2022/07/17 01:58:13;;;;;;;5.22;1.55;;;14.80;99.90;;;;;;2085356;28;20021;-67
2022/07/17 01:59:14;;;;;;;4.28;1.40;;;14.80;99.90;;;;;;2084914;28;20036;-67
2022/07/17 02:00:16;;;;;;;3.80;1.58;;;14.80;99.90;;;;;;2085086;28;20032;-67
2022/07/17 02:01:17;;;;;;;2.15;1.23;;;14.80;99.90;;;;;;2085657;28;20104;-67
2022/07/17 02:02:17;;;;;;;7.32;1.70;;;14.80;99.90;;;;;;2086249;28;20029;-67
2022/07/17 02:03:19;;;;;;;2.53;1.42;;;14.80;99.90;;;;;;2082039;28;20700;-67
2022/07/17 02:04:20;;;;;;;5.68;1.70;;;14.80;99.90;;;;;;2085656;28;20021;-67
2022/07/17 02:05:20;;;;;;;6.88;2.08;;;14.70;99.90;;;;;;2083912;28;20046;-67
2022/07/17 02:06:21;;;;;;;3.10;1.50;;;14.70;99.90;;;;;;2082913;28;20095;-67
2022/07/17 02:07:22;;;;;;;4.65;1.42;;;14.70;99.90;;;;;;2084811;28;20021;-67
2022/07/17 02:08:22;;;;;;;3.05;1.42;;;14.70;99.90;;;;;;2085817;28;20049;-67
2022/07/17 02:09:24;;;;;;;4.35;1.73;;;14.70;99.90;;;;;;2084576;28;20033;-67
2022/07/17 02:10:25;;;;;;;6.85;1.50;;;14.70;99.90;;;;;;2084003;28;20035;-68
2022/07/17 02:11:26;;;;;;;2.45;1.70;;;14.70;99.90;;;;;;2082021;28;20072;-68
2022/07/17 02:12:27;;;;;;;4.28;1.63;;;14.70;99.90;;;;;;2085199;28;20029;-68
2022/07/17 02:13:27;;;;;;;2.55;1.48;;;14.70;99.90;;;;;;2084585;28;20025;-68
2022/07/17 02:14:28;;;;;;;4.45;1.73;;;14.60;99.90;;;;;;2084130;28;20056;-68
2022/07/17 02:15:29;;;;;;;3.25;1.58;;;14.60;99.90;;;;;;2083654;28;20029;-68
2022/07/17 02:16:30;;;;;;;2.88;1.27;;;14.60;99.90;;;;;;2083763;28;20040;-68
2022/07/17 02:17:30;;;;;;;4.15;1.75;;;14.60;99.90;;;;;;2083955;28;20025;-68
2022/07/17 02:18:31;;;;;;;4.47;1.40;;;14.60;99.90;;;;;;2083089;28;20030;-68
2022/07/17 02:19:32;;;;;;;3.70;1.58;;;14.60;99.90;;;;;;2084047;28;20358;-68
2022/07/17 02:20:32;;;;;;;2.63;1.33;;;14.60;99.90;;;;;;2087009;28;20082;-68
2022/07/17 02:21:33;;;;;;;3.08;1.77;;;14.50;99.90;;;;;;2086978;28;20052;-68
2022/07/17 02:22:36;;;;;;;5.32;1.50;;;14.50;99.90;;;;;;2083681;28;20031;-68
2022/07/17 02:23:36;;;;;;;5.38;2.00;;;14.50;99.90;;;;;;2085516;28;20127;-68
2022/07/17 02:24:37;;;;;;;2.60;1.23;;;14.50;99.90;;;;;;2086551;28;20468;-68
2022/07/17 02:25:37;;;;;;;1.38;1.23;;;14.50;99.90;;;;;;2085707;28;20025;-68
2022/07/17 02:26:38;;;;;;;2.55;1.40;;;14.50;99.90;;;;;;2085258;28;20032;-68
2022/07/17 02:27:40;;;;;;;2.38;1.15;;;14.50;99.90;;;;;;2086649;28;20079;-68
2022/07/17 02:28:41;;;;;;;2.35;1.40;;;14.50;99.90;;;;;;2084938;28;20013;-68
2022/07/17 02:29:42;;;;;;;4.63;1.65;;;14.50;99.90;;;;;;2087112;28;20072;-68
2022/07/17 02:30:42;;;;;;;3.65;1.63;;;14.50;99.90;;;;;;2086055;28;20481;-67
2022/07/17 02:31:43;;;;;;;3.45;1.90;;;14.50;99.90;;;;;;2086052;28;20648;-67
2022/07/17 02:32:45;;;;;;;4.13;2.03;;;14.50;99.90;;;;;;2087547;28;20024;-67
2022/07/17 02:33:45;;;;;;;5.22;2.08;;;14.40;99.90;;;;;;2085259;28;20036;-67
2022/07/17 02:34:46;;;;;;;3.67;1.80;;;14.40;99.90;;;;;;2084530;28;20024;-67
2022/07/17 02:35:46;;;;;;;3.42;1.42;;;14.40;99.90;;;;;;2086468;28;20099;-67
2022/07/17 02:36:47;;;;;;;4.53;1.63;;;14.40;99.90;;;;;;2086072;28;20405;-67
2022/07/17 02:37:48;;;;;;;3.47;1.60;;;14.40;99.90;;;;;;2083690;28;20028;-67
2022/07/17 02:38:48;;;;;;;3.25;1.55;;;14.40;99.90;;;;;;2086194;28;20423;-67
2022/07/17 02:39:52;;;;;;;3.28;1.65;;;14.40;99.90;;;;;;2088302;28;20067;-67
2022/07/17 02:40:52;;;;;;;3.05;1.40;;;14.40;99.90;;;;;;2088921;28;20131;-67
2022/07/17 02:41:53;;;;;;;6.68;1.80;;;14.40;99.90;;;;;;2088307;28;20047;-67
2022/07/17 02:42:54;;;;;;;4.65;1.40;;;14.40;99.90;;;;;;2084248;28;20032;-67
2022/07/17 02:43:54;;;;;;;6.82;2.08;;;14.40;99.90;;;;;;2084884;28;20063;-67
2022/07/17 02:44:57;;;;;;;3.58;1.65;;;14.40;99.90;;;;;;2084175;28;20017;-67
2022/07/17 02:45:57;;;;;;;7.32;1.80;;;14.40;99.90;;;;;;2091799;28;20017;-67
2022/07/17 02:46:58;;;;;;;5.22;1.70;;;14.40;99.90;;;;;;2091520;28;20546;-67
2022/07/17 02:47:59;;;;;;;5.15;1.65;;;14.30;99.90;;;;;;2086361;28;20021;-67
2022/07/17 02:48:59;;;;;;;4.07;1.50;;;14.30;99.90;;;;;;2085546;28;20020;-67
2022/07/17 02:50:02;;;;;;;2.35;1.00;;;14.30;99.90;;;;;;2085975;28;20021;-67
2022/07/17 02:51:03;;;;;;;2.97;1.50;;;14.30;99.90;;;;;;2086220;28;20060;-67
2022/07/17 02:52:04;;;;;;;2.60;1.27;;;14.30;99.90;;;;;;2087494;28;20017;-67
2022/07/17 02:53:04;;;;;;;2.55;1.27;;;14.30;99.90;;;;;;2085665;28;20385;-67
2022/07/17 02:54:05;;;;;;;2.47;1.58;;;14.30;99.90;;;;;;2086016;28;20033;-67
2022/07/17 02:55:07;;;;;;;4.55;1.70;;;14.20;99.90;;;;;;2083239;28;20025;-67
2022/07/17 02:56:08;;;;;;;3.17;1.65;;;14.30;99.90;;;;;;2085572;28;20075;-67
2022/07/17 02:57:08;;;;;;;5.32;1.67;;;14.20;99.90;;;;;;2086093;28;20477;-67
2022/07/17 02:58:09;;;;;;;3.13;1.50;;;14.20;99.90;;;;;;2087577;28;20025;-67
2022/07/17 02:59:10;;;;;;;2.97;1.52;;;14.20;99.90;;;;;;2084524;28;20029;-67
2022/07/17 03:00:13;;;;;;;4.80;2.10;;;14.20;99.90;;;;;;2083310;28;20021;-67
2022/07/17 03:01:14;;;;;;;4.93;2.05;;;14.20;99.90;;;;;;2084457;28;20045;-67
2022/07/17 03:02:14;;;;;;;3.25;1.60;;;14.20;99.90;;;;;;2082027;28;20037;-67
2022/07/17 03:03:15;;;;;;;3.70;1.75;;;14.20;99.90;;;;;;2084771;28;20377;-67
2022/07/17 03:04:15;;;;;;;4.40;1.80;;;14.20;99.90;;;;;;2088653;28;20013;-67
2022/07/17 03:05:16;;;;;;;3.55;1.90;;;14.20;99.90;;;;;;2085186;28;20025;-67
2022/07/17 03:06:17;;;;;;;4.65;2.22;;;14.20;99.90;;;;;;2088162;28;20075;-67
2022/07/17 03:07:17;;;;;;;5.00;1.98;;;14.20;99.90;;;;;;2086552;28;20056;-67
2022/07/17 03:08:18;;;;;;;3.90;1.48;;;14.10;99.90;;;;;;2085389;28;20386;-67
2022/07/17 03:09:19;;;;;;;4.18;2.08;;;14.20;99.90;;;;;;2087576;28;20397;-67
2022/07/17 03:10:19;;;;;;;3.65;1.90;;;14.20;99.90;;;;;;2081665;28;20033;-68
2022/07/17 03:11:20;;;;;;;3.03;1.55;;;14.10;99.90;;;;;;2085575;28;20025;-68
2022/07/17 03:12:21;;;;;;;2.22;1.30;;;14.10;99.90;;;;;;2086494;28;20021;-68
2022/07/17 03:13:21;;;;;;;4.68;1.63;;;14.10;99.90;;;;;;2084601;28;20567;-68
2022/07/17 03:14:22;;;;;;;4.20;1.52;;;14.10;99.90;;;;;;2088394;28;20064;-68
2022/07/17 03:15:23;;;;;;;4.82;1.75;;;14.10;99.90;;;;;;2086297;28;20021;-68
2022/07/17 03:16:23;;;;;;;2.08;1.58;;;14.10;99.90;;;;;;2085395;28;20140;-68
2022/07/17 03:17:24;;;;;;;4.68;1.58;;;14.10;99.90;;;;;;2086526;28;20396;-68
2022/07/17 03:18:24;;;;;;;4.18;1.55;;;14.10;99.90;;;;;;2087393;28;20036;-68
2022/07/17 03:19:25;;;;;;;2.40;1.52;;;14.10;99.90;;;;;;2086747;28;20606;-68
2022/07/17 03:20:26;;;;;;;4.00;1.50;;;14.10;99.90;;;;;;2087676;28;20905;-68
2022/07/17 03:21:26;;;;;;;2.92;1.75;;;14.10;99.90;;;;;;2087245;28;20075;-68
2022/07/17 03:22:27;;;;;;;3.95;1.83;;;14.10;99.90;;;;;;2087302;28;20400;-68
2022/07/17 03:23:27;;;;;;;2.97;1.75;;;14.10;99.90;;;;;;2087901;28;20102;-68
2022/07/17 03:24:28;;;;;;;3.33;1.60;;;14.00;99.90;;;;;;2089137;28;20472;-68
2022/07/17 03:25:29;;;;;;;4.35;1.30;;;14.00;99.90;;;;;;2084727;28;20029;-68
2022/07/17 03:26:30;;;;;;;5.55;1.95;;;14.10;99.90;;;;;;2087521;28;20029;-68
2022/07/17 03:27:31;;;;;;;5.10;1.60;;;14.00;99.90;;;;;;2090242;28;20045;-68
2022/07/17 03:28:31;;;;;;;2.40;1.40;;;14.00;99.90;;;;;;2088551;28;20029;-68
2022/07/17 03:29:32;;;;;;;3.90;1.40;;;14.00;99.90;;;;;;2083065;28;20075;-68
2022/07/17 03:30:32;;;;;;;4.47;1.52;;;14.00;99.90;;;;;;2084971;28;20022;-68
2022/07/17 03:31:33;;;;;;;4.43;1.80;;;14.00;99.90;;;;;;2085645;28;20108;-68
2022/07/17 03:32:34;;;;;;;4.22;1.65;;;14.00;99.90;;;;;;2081977;28;20031;-68
2022/07/17 03:33:34;;;;;;;4.18;1.77;;;14.00;99.90;;;;;;2085149;28;20112;-68
2022/07/17 03:34:35;;;;;;;3.38;1.85;;;14.00;99.90;;;;;;2085695;28;20017;-68
2022/07/17 03:35:36;;;;;;;6.53;2.00;;;14.00;99.90;;;;;;2083251;28;20029;-68
2022/07/17 03:36:37;;;;;;;4.53;1.80;;;14.00;99.90;;;;;;2087641;28;20115;-68
2022/07/17 03:37:38;;;;;;;4.35;1.52;;;14.00;99.90;;;;;;2086163;28;20032;-68
2022/07/17 03:38:39;;;;;;;4.65;1.20;;;13.90;99.90;;;;;;2086204;28;20094;-68
2022/07/17 03:39:39;;;;;;;5.03;1.50;;;13.90;99.90;;;;;;2086807;28;20030;-68
2022/07/17 03:40:40;;;;;;;6.10;2.22;;;13.90;99.90;;;;;;2084924;28;20026;-68
2022/07/17 03:41:40;;;;;;;2.97;1.73;;;13.90;99.90;;;;;;2085095;28;20111;-68
2022/07/17 03:42:41;;;;;;;5.95;1.92;;;13.90;99.90;;;;;;2087137;28;20052;-68
2022/07/17 03:43:42;;;;;;;3.47;1.88;;;13.90;99.90;;;;;;2084437;28;20023;-68
2022/07/17 03:44:43;;;;;;;4.65;1.90;;;13.90;99.90;;;;;;2086694;28;20025;-68
2022/07/17 03:45:43;;;;;;;3.83;1.83;;;13.90;99.90;;;;;;2082896;28;20385;-68
2022/07/17 03:46:44;;;;;;;3.20;1.80;;;13.80;99.90;;;;;;2084576;28;20028;-68
2022/07/17 03:47:44;;;;;;;6.68;2.45;;;13.80;99.90;;;;;;2085356;28;20040;-68
2022/07/17 03:48:45;;;;;;;4.25;1.67;;;13.80;99.90;;;;;;2087100;28;20020;-68
2022/07/17 03:49:46;;;;;;;3.08;1.20;;;13.80;99.90;;;;;;2087550;28;20029;-68
2022/07/17 03:50:46;;;;;;;4.55;1.67;;;13.90;99.90;;;;;;2084873;28;20022;-68
2022/07/17 03:51:47;;;;;;;3.95;1.63;;;13.80;99.90;;;;;;2084746;28;20022;-68
2022/07/17 03:52:48;;;;;;;4.63;1.50;;;13.80;99.90;;;;;;2085972;28;20021;-68
2022/07/17 03:53:48;;;;;;;4.80;1.77;;;13.90;99.90;;;;;;2083867;28;20021;-68
2022/07/17 03:54:49;;;;;;;4.13;1.48;;;13.80;99.90;;;;;;2084248;28;20353;-68
2022/07/17 03:55:49;;;;;;;2.83;1.40;;;13.80;99.90;;;;;;2084951;28;20472;-68
2022/07/17 03:56:50;;;;;;;4.80;1.70;;;13.80;99.90;;;;;;2083328;28;20527;-68
2022/07/17 03:57:51;;;;;;;3.83;1.30;;;13.80;99.90;;;;;;2084854;28;20024;-68
2022/07/17 03:58:52;;;;;;;3.97;1.65;;;13.80;99.90;;;;;;2084408;28;20022;-68
2022/07/17 03:59:52;;;;;;;2.72;1.55;;;13.80;99.90;;;;;;2085583;28;20045;-68
2022/07/17 04:00:54;;;;;;;4.35;1.60;;;13.80;99.90;;;;;;2082862;28;20032;-68
2022/07/17 04:01:56;;;;;;;3.90;1.95;;;13.80;99.90;;;;;;2082489;28;20030;-68
2022/07/17 04:02:56;;;;;;;3.35;1.60;;;13.80;99.90;;;;;;2083545;28;20061;-68
2022/07/17 04:03:57;;;;;;;4.30;1.67;;;13.80;99.90;;;;;;2084409;28;20030;-68
2022/07/17 04:04:57;;;;;;;4.43;1.85;;;13.80;99.90;;;;;;2085133;28;20032;-68
2022/07/17 04:05:58;;;;;;;4.20;1.98;;;13.80;99.90;;;;;;2082984;28;20023;-68
2022/07/17 04:06:59;;;;;;;3.90;1.75;;;13.80;99.90;;;;;;2084189;28;20017;-68
2022/07/17 04:07:59;;;;;;;4.05;1.58;;;13.80;99.90;;;;;;2085174;28;20495;-68
2022/07/17 04:09:00;;;;;;;4.22;1.88;;;13.80;99.90;;;;;;2086744;28;20048;-68
2022/07/17 04:10:00;;;;;;;3.83;1.80;;;13.80;99.90;;;;;;2085077;28;20033;-68
2022/07/17 04:11:01;;;;;;;2.42;1.52;;;13.80;99.90;;;;;;2084678;28;20017;-68
2022/07/17 04:12:02;;;;;;;4.70;1.52;;;13.80;99.90;;;;;;2085293;28;20100;-68
2022/07/17 04:13:02;;;;;;;3.95;1.75;;;13.80;99.90;;;;;;2044755;28;1135943;-68
2022/07/17 04:14:03;;;;;;;5.18;1.73;;;13.80;99.90;;;;;;2084435;28;20477;-68
2022/07/17 04:15:05;;;;;;;5.80;1.63;;;13.80;99.90;;;;;;2086754;28;20493;-68
2022/07/17 04:16:06;;;;;;;4.05;1.50;;;13.90;99.90;;;;;;2083915;28;20025;-68
2022/07/17 04:17:07;;;;;;;5.43;1.80;;;13.90;99.90;;;;;;2085339;28;20017;-68
2022/07/17 04:18:08;;;;;;;2.17;1.35;;;13.90;99.90;;;;;;2084255;28;20021;-68
2022/07/17 04:19:08;;;;;;;3.30;1.67;;;13.90;99.90;;;;;;2083115;28;20495;-68
2022/07/17 04:20:09;;;;;;;2.45;1.40;;;13.90;99.90;;;;;;2085229;28;20060;-68
2022/07/17 04:21:10;;;;;;;4.15;1.80;;;13.90;99.90;;;;;;2085426;28;20021;-68
2022/07/17 04:22:11;;;;;;;4.85;2.10;;;13.90;99.90;;;;;;2084994;28;20082;-68
2022/07/17 04:23:12;;;;;;;5.22;1.60;;;14.00;99.90;;;;;;2086633;28;20082;-68
2022/07/17 04:24:13;;;;;;;2.95;2.05;;;13.90;99.90;;;;;;2085316;28;20056;-68
2022/07/17 04:25:14;;;;;;;2.35;1.80;;;14.00;99.90;;;;;;2084565;28;20534;-68
2022/07/17 04:26:14;;;;;;;3.53;1.35;;;14.00;99.90;;;;;;2085913;28;20333;-68
2022/07/17 04:27:15;;;;;;;3.95;1.58;;;14.00;99.90;;;;;;2083194;28;20044;-68
2022/07/17 04:28:16;;;;;;;7.63;1.73;;;14.00;99.90;;;;;;2086504;28;20029;-68
2022/07/17 04:29:17;;;;;;;4.45;1.67;;;14.00;99.90;;;;;;2085981;28;20025;-68
2022/07/17 04:30:18;;;;;;;4.40;1.50;;;14.00;99.90;;;;;;2086909;28;20025;-68
2022/07/17 04:31:18;;;;;;;5.63;1.73;;;14.10;99.90;;;;;;2086613;28;20017;-68
2022/07/17 04:32:19;;;;;;;4.03;1.83;;;14.10;99.90;;;;;;2083303;28;20024;-68
2022/07/17 04:33:20;;;;;;;2.78;1.77;;;14.10;99.90;;;;;;2086903;28;20020;-68
2022/07/17 04:34:20;;;;;;;2.97;1.50;;;14.20;99.90;;;;;;2083567;28;20032;-68
2022/07/17 04:35:21;;;;;;;5.50;2.05;;;14.30;99.90;;;;;;2085736;28;20025;-68
2022/07/17 04:36:21;;;;;;;7.13;2.15;;;14.40;99.90;;;;;;2085637;28;20082;-68
2022/07/17 04:37:22;;;;;;;3.33;1.80;;;14.50;99.90;;;;;;2083496;28;20567;-68
2022/07/17 04:38:22;;;;;;;3.92;1.85;;;14.60;99.90;;;;;;2085553;28;20033;-68
2022/07/17 04:39:23;;;;;;;3.80;1.80;;;14.70;99.90;;;;;;2085341;28;20515;-68
2022/07/17 04:40:24;;;;;;;3.53;1.75;;;14.80;99.90;;;;;;2084411;28;20025;-68
2022/07/17 04:41:24;;;;;;;4.07;2.22;;;14.80;99.90;;;;;;2086284;28;20057;-68
2022/07/17 04:42:25;;;;;;;3.35;1.60;;;14.80;99.90;;;;;;2083867;28;20099;-68
2022/07/17 04:43:26;;;;;;;6.78;2.05;;;14.80;99.90;;;;;;2083000;28;20542;-68
2022/07/17 04:44:26;;;;;;;4.65;2.28;;;14.90;99.90;;;;;;2085678;28;20109;-68
2022/07/17 04:45:27;;;;;;;2.88;1.80;;;14.90;99.90;;;;;;2085174;28;20075;-68
2022/07/17 04:46:28;;;;;;;4.72;1.90;;;14.90;99.90;;;;;;2086019;28;20017;-68
2022/07/17 04:47:28;;;;;;;6.60;1.95;;;14.90;99.90;;;;;;2083911;28;20013;-68
2022/07/17 04:48:29;;;;;;;4.15;2.00;;;15.00;99.90;;;;;;2084945;28;20022;-68
2022/07/17 04:49:30;;;;;;;3.83;1.83;;;15.00;99.90;;;;;;2083642;28;20032;-68
2022/07/17 04:50:31;;;;;;;2.45;1.65;;;15.00;99.90;;;;;;2084337;28;20021;-68
2022/07/17 04:51:32;;;;;;;4.13;1.83;;;15.00;99.90;;;;;;2082766;28;20025;-68
2022/07/17 04:52:32;;;;;;;4.70;1.85;;;15.00;99.90;;;;;;2081889;28;20018;-68
2022/07/17 04:53:33;;;;;;;3.17;1.70;;;15.10;99.90;;;;;;2083186;28;20071;-68
2022/07/17 04:54:34;;;;;;;4.28;2.15;;;15.10;99.90;;;;;;2086072;28;20029;-68
2022/07/17 04:55:34;;;;;;;5.97;2.10;;;15.20;99.90;;;;;;2083982;28;20048;-68
2022/07/17 04:56:35;;;;;;;4.65;1.95;;;15.20;99.90;;;;;;2085793;28;20092;-68
2022/07/17 04:57:36;;;;;;;3.83;2.17;;;15.20;99.90;;;;;;2087509;28;20032;-68
2022/07/17 04:58:37;;;;;;;3.58;1.80;;;15.30;99.90;;;;;;2086462;28;20029;-68
2022/07/17 04:59:37;;;;;;;4.63;1.73;;;15.30;99.90;;;;;;2087512;28;20026;-68
2022/07/17 05:00:38;;;;;;;6.10;1.88;;;15.30;99.90;;;;;;2087618;28;20097;-68
2022/07/17 05:01:38;;;;;;;4.53;1.90;;;15.40;99.90;;;;;;2084330;28;20013;-68
2022/07/17 05:02:39;;;;;;;6.15;2.28;;;15.40;99.90;;;;;;2086718;28;20025;-68
2022/07/17 05:03:40;;;;;;;6.28;2.10;;;15.50;99.90;;;;;;2085973;28;20086;-68
2022/07/17 05:04:40;;;;;;;3.40;1.77;;;15.50;99.90;;;;;;2083442;28;20469;-68
2022/07/17 05:05:41;;;;;;;2.50;1.50;;;15.50;99.90;;;;;;2082928;28;20022;-68
2022/07/17 05:06:41;;;;;;;4.85;1.90;;;15.60;99.90;;;;;;2085324;28;20731;-68
2022/07/17 05:07:42;;;;;;;5.78;1.95;;;15.70;99.90;;;;;;2084303;28;20131;-68
2022/07/17 05:08:43;;;;;;;6.30;2.17;;;15.70;99.90;;;;;;2084649;28;20056;-68
2022/07/17 05:09:43;;;;;;;4.80;1.77;;;15.70;99.90;;;;;;2085211;28;20024;-68
2022/07/17 05:10:45;;;;;;;7.38;2.35;;;15.80;99.90;;;;;;2085321;28;20134;-68
2022/07/17 05:11:45;;;;;;;4.55;1.85;;;15.90;99.90;;;;;;2084326;28;20108;-68
2022/07/17 05:12:46;;;;;;;5.40;2.22;;;16.00;99.90;;;;;;2083274;28;20021;-68
2022/07/17 05:13:47;;;;;;;5.05;2.22;;;16.00;99.90;;;;;;2084736;28;20388;-68
2022/07/17 05:14:47;;;;;;;6.10;2.40;;;16.10;99.90;;;;;;2084014;28;20046;-68
2022/07/17 05:15:49;;;;;;;7.50;2.60;;;16.20;99.90;;;;;;2085115;28;20539;-68
2022/07/17 05:16:49;;;;;;;6.28;2.40;;;16.30;99.90;;;;;;2087354;28;20020;-68